sensor_id;sensor_type;location;lat;lon;timestamp;pressure;altitude;pressure_sealevel;temperature;humidity
18795;BME280;29610;49.022;12.114;2023-03-22T00:02:18;97563.63;;;11.82;100.00
18795;BME280;29610;49.022;12.114;2023-03-22T00:05:08;97554.94;;;11.88;100.00
18795;BME280;29610;49.022;12.114;2023-03-22T00:07:57;97558.66;;;11.84;100.00
18795;BME280;29610;49.022;12.114;2023-03-22T00:10:47;97560.25;;;11.85;100.00
18795;BME280;29610;49.022;12.114;2023-03-22T00:13:36;97555.06;;;11.92;100.00
18795;BME280;29610;49.022;12.114;2023-03-22T00:16:25;97543.22;;;11.88;100.00
18795;BME280;29610;49.022;12.114;2023-03-22T00:19:15;97544.38;;;11.87;100.00
18795;BME280;29610;49.022;12.114;2023-03-22T00:22:05;97546.63;;;11.85;100.00
18795;BME280;29610;49.022;12.114;2023-03-22T00:24:54;97540.13;;;11.77;100.00
18795;BME280;29610;49.022;12.114;2023-03-22T00:27:44;97557.84;;;11.83;100.00
18795;BME280;29610;49.022;12.114;2023-03-22T00:30:32;97543.31;;;11.79;100.00
18795;BME280;29610;49.022;12.114;2023-03-22T00:33:22;97547.28;;;11.82;100.00
18795;BME280;29610;49.022;12.114;2023-03-22T00:36:12;97557.91;;;11.74;100.00
18795;BME280;29610;49.022;12.114;2023-03-22T00:39:03;97553.34;;;11.87;100.00
18795;BME280;29610;49.022;12.114;2023-03-22T00:41:53;97547.22;;;11.90;100.00
18795;BME280;29610;49.022;12.114;2023-03-22T00:44:42;97550.94;;;11.86;100.00
18795;BME280;29610;49.022;12.114;2023-03-22T00:47:31;97545.19;;;11.87;100.00
18795;BME280;29610;49.022;12.114;2023-03-22T00:50:20;97542.91;;;11.89;100.00
18795;BME280;29610;49.022;12.114;2023-03-22T00:53:09;97541.19;;;11.85;100.00
18795;BME280;29610;49.022;12.114;2023-03-22T00:56:02;97529.69;;;12.00;100.00
18795;BME280;29610;49.022;12.114;2023-03-22T00:59:00;97542.31;;;11.84;100.00
18795;BME280;29610;49.022;12.114;2023-03-22T01:01:50;97543.25;;;11.67;100.00
18795;BME280;29610;49.022;12.114;2023-03-22T01:04:40;97544.22;;;11.62;100.00
18795;BME280;29610;49.022;12.114;2023-03-22T01:07:33;97543.25;;;11.58;100.00
18795;BME280;29610;49.022;12.114;2023-03-22T01:10:24;97537.47;;;11.39;100.00
18795;BME280;29610;49.022;12.114;2023-03-22T01:13:16;97542.69;;;11.53;100.00
18795;BME280;29610;49.022;12.114;2023-03-22T01:16:06;97538.75;;;11.42;100.00
18795;BME280;29610;49.022;12.114;2023-03-22T01:18:55;97537.41;;;11.27;100.00
18795;BME280;29610;49.022;12.114;2023-03-22T01:21:44;97535.59;;;11.31;100.00
18795;BME280;29610;49.022;12.114;2023-03-22T01:24:34;97530.50;;;11.30;100.00
18795;BME280;29610;49.022;12.114;2023-03-22T01:27:23;97540.22;;;11.10;100.00
18795;BME280;29610;49.022;12.114;2023-03-22T01:30:13;97524.69;;;11.11;100.00
18795;BME280;29610;49.022;12.114;2023-03-22T01:33:02;97521.56;;;11.29;100.00
18795;BME280;29610;49.022;12.114;2023-03-22T01:35:54;97513.91;;;11.23;100.00
18795;BME280;29610;49.022;12.114;2023-03-22T01:38:43;97514.09;;;11.18;100.00
18795;BME280;29610;49.022;12.114;2023-03-22T01:41:32;97505.38;;;11.04;100.00
18795;BME280;29610;49.022;12.114;2023-03-22T01:44:29;97501.44;;;10.93;100.00
18795;BME280;29610;49.022;12.114;2023-03-22T01:47:22;97501.81;;;10.83;100.00
18795;BME280;29610;49.022;12.114;2023-03-22T01:50:12;97510.63;;;10.80;100.00
18795;BME280;29610;49.022;12.114;2023-03-22T01:53:02;97517.09;;;10.58;100.00
18795;BME280;29610;49.022;12.114;2023-03-22T01:55:56;97526.13;;;10.33;100.00
18795;BME280;29610;49.022;12.114;2023-03-22T01:58:52;97519.91;;;10.24;100.00
18795;BME280;29610;49.022;12.114;2023-03-22T02:01:49;97514.16;;;10.17;100.00
18795;BME280;29610;49.022;12.114;2023-03-22T02:04:40;97505.88;;;9.96;100.00
18795;BME280;29610;49.022;12.114;2023-03-22T02:07:29;97507.63;;;9.75;100.00
18795;BME280;29610;49.022;12.114;2023-03-22T02:10:25;97509.56;;;9.58;100.00
18795;BME280;29610;49.022;12.114;2023-03-22T02:13:36;97503.63;;;9.39;100.00
18795;BME280;29610;49.022;12.114;2023-03-22T02:17:18;97506.03;;;9.23;100.00
18795;BME280;29610;49.022;12.114;2023-03-22T02:25:09;97497.34;;;8.87;100.00
18795;BME280;29610;49.022;12.114;2023-03-22T02:28:17;97487.72;;;8.72;100.00
18795;BME280;29610;49.022;12.114;2023-03-22T02:31:57;97487.06;;;8.67;100.00
18795;BME280;29610;49.022;12.114;2023-03-22T02:35:23;97481.22;;;8.90;100.00
18795;BME280;29610;49.022;12.114;2023-03-22T02:38:46;97485.41;;;9.05;100.00
18795;BME280;29610;49.022;12.114;2023-03-22T02:42:16;97485.75;;;9.12;100.00
18795;BME280;29610;49.022;12.114;2023-03-22T02:45:15;97476.22;;;9.32;100.00
18795;BME280;29610;49.022;12.114;2023-03-22T02:48:11;97476.53;;;9.47;100.00
18795;BME280;29610;49.022;12.114;2023-03-22T02:51:08;97470.94;;;9.61;100.00
18795;BME280;29610;49.022;12.114;2023-03-22T02:54:06;97471.75;;;9.70;100.00
18795;BME280;29610;49.022;12.114;2023-03-22T02:57:05;97468.22;;;9.78;100.00
18795;BME280;29610;49.022;12.114;2023-03-22T02:59:58;97477.94;;;9.87;100.00
18795;BME280;29610;49.022;12.114;2023-03-22T03:02:52;97479.38;;;9.85;100.00
18795;BME280;29610;49.022;12.114;2023-03-22T03:05:47;97484.03;;;9.76;100.00
18795;BME280;29610;49.022;12.114;2023-03-22T03:08:39;97488.31;;;9.85;100.00
18795;BME280;29610;49.022;12.114;2023-03-22T03:11:31;97479.22;;;9.90;100.00
18795;BME280;29610;49.022;12.114;2023-03-22T03:14:23;97477.91;;;10.04;100.00
18795;BME280;29610;49.022;12.114;2023-03-22T03:17:33;97476.00;;;10.13;100.00
18795;BME280;29610;49.022;12.114;2023-03-22T03:20:39;97474.19;;;10.26;100.00
18795;BME280;29610;49.022;12.114;2023-03-22T03:23:46;97465.09;;;10.30;100.00
18795;BME280;29610;49.022;12.114;2023-03-22T03:26:47;97470.53;;;10.30;100.00
18795;BME280;29610;49.022;12.114;2023-03-22T03:29:44;97474.72;;;10.19;100.00
18795;BME280;29610;49.022;12.114;2023-03-22T03:32:43;97477.91;;;10.04;100.00
18795;BME280;29610;49.022;12.114;2023-03-22T03:35:41;97494.72;;;9.81;100.00
18795;BME280;29610;49.022;12.114;2023-03-22T03:38:36;97489.59;;;9.62;100.00
18795;BME280;29610;49.022;12.114;2023-03-22T03:41:29;97480.69;;;9.36;100.00
18795;BME280;29610;49.022;12.114;2023-03-22T03:44:20;97473.47;;;9.23;100.00
18795;BME280;29610;49.022;12.114;2023-03-22T03:47:11;97481.59;;;9.06;100.00
18795;BME280;29610;49.022;12.114;2023-03-22T03:50:01;97488.13;;;8.97;100.00
18795;BME280;29610;49.022;12.114;2023-03-22T03:52:52;97490.28;;;8.77;100.00
18795;BME280;29610;49.022;12.114;2023-03-22T03:55:42;97487.72;;;8.72;100.00
18795;BME280;29610;49.022;12.114;2023-03-22T03:58:34;97494.91;;;8.77;100.00
18795;BME280;29610;49.022;12.114;2023-03-22T04:01:26;97498.13;;;8.87;100.00
18795;BME280;29610;49.022;12.114;2023-03-22T04:04:28;97502.59;;;8.83;100.00
18795;BME280;29610;49.022;12.114;2023-03-22T04:07:21;97486.00;;;8.85;100.00
18795;BME280;29610;49.022;12.114;2023-03-22T04:10:10;97494.47;;;8.92;100.00
18795;BME280;29610;49.022;12.114;2023-03-22T04:12:59;97489.34;;;8.90;100.00
18795;BME280;29610;49.022;12.114;2023-03-22T04:15:52;97490.94;;;8.83;100.00
18795;BME280;29610;49.022;12.114;2023-03-22T04:18:42;97483.94;;;8.82;100.00
18795;BME280;29610;49.022;12.114;2023-03-22T04:21:32;97485.16;;;8.67;100.00
18795;BME280;29610;49.022;12.114;2023-03-22T04:24:22;97487.00;;;8.58;100.00
18795;BME280;29610;49.022;12.114;2023-03-22T04:27:12;97481.75;;;8.53;100.00
18795;BME280;29610;49.022;12.114;2023-03-22T04:30:24;97489.34;;;8.43;100.00
18795;BME280;29610;49.022;12.114;2023-03-22T04:33:32;97491.22;;;8.34;100.00
18795;BME280;29610;49.022;12.114;2023-03-22T04:36:45;97489.78;;;8.28;100.00
18795;BME280;29610;49.022;12.114;2023-03-22T04:39:43;97485.09;;;8.20;100.00
18795;BME280;29610;49.022;12.114;2023-03-22T04:42:45;97485.41;;;8.18;100.00
18795;BME280;29610;49.022;12.114;2023-03-22T04:45:46;97487.59;;;8.16;100.00
18795;BME280;29610;49.022;12.114;2023-03-22T04:48:41;97487.72;;;8.11;100.00
18795;BME280;29610;49.022;12.114;2023-03-22T04:51:31;97484.31;;;7.97;100.00
18795;BME280;29610;49.022;12.114;2023-03-22T04:54:36;97482.59;;;7.79;100.00
18795;BME280;29610;49.022;12.114;2023-03-22T04:57:26;97479.59;;;7.59;100.00
18795;BME280;29610;49.022;12.114;2023-03-22T05:00:17;97484.06;;;7.63;100.00
18795;BME280;29610;49.022;12.114;2023-03-22T05:03:08;97489.16;;;7.65;100.00
18795;BME280;29610;49.022;12.114;2023-03-22T05:06:06;97491.88;;;7.65;100.00
18795;BME280;29610;49.022;12.114;2023-03-22T05:09:04;97495.06;;;7.67;100.00
18795;BME280;29610;49.022;12.114;2023-03-22T05:11:55;97496.06;;;7.71;100.00
18795;BME280;29610;49.022;12.114;2023-03-22T05:14:58;97484.56;;;7.65;100.00
18795;BME280;29610;49.022;12.114;2023-03-22T05:17:54;97473.19;;;7.77;100.00
18795;BME280;29610;49.022;12.114;2023-03-22T05:20:43;97483.22;;;7.76;100.00
18795;BME280;29610;49.022;12.114;2023-03-22T05:23:39;97481.13;;;7.73;100.00
18795;BME280;29610;49.022;12.114;2023-03-22T05:26:29;97484.13;;;7.72;100.00
18795;BME280;29610;49.022;12.114;2023-03-22T05:29:20;97479.25;;;7.82;100.00
18795;BME280;29610;49.022;12.114;2023-03-22T05:32:21;97488.06;;;7.88;100.00
18795;BME280;29610;49.022;12.114;2023-03-22T05:35:16;97489.41;;;7.99;100.00
18795;BME280;29610;49.022;12.114;2023-03-22T05:38:11;97487.22;;;8.09;100.00
18795;BME280;29610;49.022;12.114;2023-03-22T05:41:07;97494.38;;;8.27;100.00
18795;BME280;29610;49.022;12.114;2023-03-22T05:43:57;97488.06;;;8.40;100.00
18795;BME280;29610;49.022;12.114;2023-03-22T05:46:48;97488.78;;;8.54;100.00
18795;BME280;29610;49.022;12.114;2023-03-22T05:49:52;97488.50;;;8.73;100.00
18795;BME280;29610;49.022;12.114;2023-03-22T05:52:51;97482.69;;;8.97;100.00
18795;BME280;29610;49.022;12.114;2023-03-22T05:55:53;97482.06;;;9.08;100.00
18795;BME280;29610;49.022;12.114;2023-03-22T05:58:52;97480.34;;;9.29;100.00
18795;BME280;29610;49.022;12.114;2023-03-22T06:24:20;97497.31;;;10.49;100.00
18795;BME280;29610;49.022;12.114;2023-03-22T06:28:09;97496.25;;;10.71;100.00
18795;BME280;29610;49.022;12.114;2023-03-22T06:31:05;97490.41;;;10.89;100.00
18795;BME280;29610;49.022;12.114;2023-03-22T06:34:21;97491.97;;;10.99;100.00
18795;BME280;29610;49.022;12.114;2023-03-22T06:37:10;97491.16;;;11.27;100.00
18795;BME280;29610;49.022;12.114;2023-03-22T06:40:09;97488.91;;;11.29;100.00
18795;BME280;29610;49.022;12.114;2023-03-22T06:43:03;97492.75;;;11.49;100.00
18795;BME280;29610;49.022;12.114;2023-03-22T06:45:56;97487.72;;;11.59;100.00
18795;BME280;29610;49.022;12.114;2023-03-22T06:48:51;97485.78;;;11.60;100.00
18795;BME280;29610;49.022;12.114;2023-03-22T06:51:40;97483.28;;;11.75;100.00
18795;BME280;29610;49.022;12.114;2023-03-22T06:54:29;97478.63;;;11.76;100.00
18795;BME280;29610;49.022;12.114;2023-03-22T06:57:20;97489.66;;;11.79;100.00
18795;BME280;29610;49.022;12.114;2023-03-22T07:00:10;97496.72;;;11.81;100.00
18795;BME280;29610;49.022;12.114;2023-03-22T07:03:00;97507.13;;;11.78;100.00
18795;BME280;29610;49.022;12.114;2023-03-22T07:06:15;97503.53;;;11.87;100.00
18795;BME280;29610;49.022;12.114;2023-03-22T07:09:08;97496.47;;;11.86;100.00
18795;BME280;29610;49.022;12.114;2023-03-22T07:11:58;97501.47;;;11.84;100.00
18795;BME280;29610;49.022;12.114;2023-03-22T07:14:48;97496.28;;;11.91;100.00
18795;BME280;29610;49.022;12.114;2023-03-22T07:17:51;97500.69;;;12.16;100.00
18795;BME280;29610;49.022;12.114;2023-03-22T07:20:42;97490.63;;;12.28;100.00
18795;BME280;29610;49.022;12.114;2023-03-22T07:23:33;97493.38;;;12.40;100.00
18795;BME280;29610;49.022;12.114;2023-03-22T07:26:30;97495.34;;;12.64;100.00
18795;BME280;29610;49.022;12.114;2023-03-22T07:29:31;97490.25;;;12.86;100.00
18795;BME280;29610;49.022;12.114;2023-03-22T07:32:40;97492.19;;;13.10;100.00
18795;BME280;29610;49.022;12.114;2023-03-22T07:35:38;97493.69;;;13.07;100.00
18795;BME280;29610;49.022;12.114;2023-03-22T07:38:33;97504.94;;;13.06;100.00
18795;BME280;29610;49.022;12.114;2023-03-22T07:41:26;97496.50;;;13.35;100.00
18795;BME280;29610;49.022;12.114;2023-03-22T07:44:50;97489.63;;;13.53;100.00
18795;BME280;29610;49.022;12.114;2023-03-22T07:47:41;97491.72;;;13.44;100.00
18795;BME280;29610;49.022;12.114;2023-03-22T07:50:39;97499.63;;;13.61;100.00
18795;BME280;29610;49.022;12.114;2023-03-22T07:53:30;97494.16;;;13.61;100.00
18795;BME280;29610;49.022;12.114;2023-03-22T07:56:25;97493.56;;;13.80;100.00
18795;BME280;29610;49.022;12.114;2023-03-22T07:59:14;97494.19;;;14.01;100.00
18795;BME280;29610;49.022;12.114;2023-03-22T08:02:09;97490.81;;;14.07;100.00
18795;BME280;29610;49.022;12.114;2023-03-22T08:05:07;97492.94;;;14.26;100.00
18795;BME280;29610;49.022;12.114;2023-03-22T08:08:01;97486.19;;;14.51;100.00
18795;BME280;29610;49.022;12.114;2023-03-22T08:10:51;97494.50;;;14.54;100.00
18795;BME280;29610;49.022;12.114;2023-03-22T08:13:40;97493.53;;;14.78;100.00
18795;BME280;29610;49.022;12.114;2023-03-22T08:16:30;97489.91;;;14.90;100.00
18795;BME280;29610;49.022;12.114;2023-03-22T08:19:24;97493.41;;;15.21;100.00
18795;BME280;29610;49.022;12.114;2023-03-22T08:22:15;97493.22;;;15.45;100.00
18795;BME280;29610;49.022;12.114;2023-03-22T08:25:24;97494.25;;;15.56;100.00
18795;BME280;29610;49.022;12.114;2023-03-22T08:28:18;97489.84;;;15.52;100.00
18795;BME280;29610;49.022;12.114;2023-03-22T08:31:10;97492.78;;;15.43;100.00
18795;BME280;29610;49.022;12.114;2023-03-22T08:34:03;97491.09;;;15.73;100.00
18795;BME280;29610;49.022;12.114;2023-03-22T08:36:52;97491.81;;;15.89;100.00
18795;BME280;29610;49.022;12.114;2023-03-22T08:39:43;97501.78;;;15.97;100.00
18795;BME280;29610;49.022;12.114;2023-03-22T08:42:51;97490.59;;;15.87;100.00
18795;BME280;29610;49.022;12.114;2023-03-22T08:45:40;97485.28;;;16.13;100.00
18795;BME280;29610;49.022;12.114;2023-03-22T08:48:35;97488.22;;;16.24;100.00
18795;BME280;29610;49.022;12.114;2023-03-22T08:51:34;97480.28;;;16.19;100.00
18795;BME280;29610;49.022;12.114;2023-03-22T08:54:40;97487.66;;;16.37;100.00
18795;BME280;29610;49.022;12.114;2023-03-22T08:57:49;97481.50;;;16.63;100.00
18795;BME280;29610;49.022;12.114;2023-03-22T09:00:38;97475.66;;;16.64;100.00
18795;BME280;29610;49.022;12.114;2023-03-22T09:03:43;97466.88;;;16.55;100.00
18795;BME280;29610;49.022;12.114;2023-03-22T09:06:32;97471.19;;;16.34;100.00
18795;BME280;29610;49.022;12.114;2023-03-22T09:09:21;97469.25;;;16.57;100.00
18795;BME280;29610;49.022;12.114;2023-03-22T09:12:12;97460.50;;;16.48;100.00
18795;BME280;29610;49.022;12.114;2023-03-22T09:15:05;97457.50;;;16.37;100.00
18795;BME280;29610;49.022;12.114;2023-03-22T09:17:56;97448.78;;;16.51;100.00
18795;BME280;29610;49.022;12.114;2023-03-22T09:20:45;97456.59;;;16.71;100.00
18795;BME280;29610;49.022;12.114;2023-03-22T09:23:39;97445.38;;;16.57;100.00
18795;BME280;29610;49.022;12.114;2023-03-22T09:26:30;97437.38;;;16.71;100.00
18795;BME280;29610;49.022;12.114;2023-03-22T09:29:19;97437.38;;;16.49;100.00
18795;BME280;29610;49.022;12.114;2023-03-22T09:32:10;97442.31;;;16.85;100.00
18795;BME280;29610;49.022;12.114;2023-03-22T09:35:00;97440.91;;;16.94;100.00
18795;BME280;29610;49.022;12.114;2023-03-22T09:37:58;97437.72;;;16.92;100.00
18795;BME280;29610;49.022;12.114;2023-03-22T09:40:52;97429.22;;;17.27;100.00
18795;BME280;29610;49.022;12.114;2023-03-22T09:43:53;97434.63;;;17.20;100.00
18795;BME280;29610;49.022;12.114;2023-03-22T09:46:51;97430.59;;;17.40;100.00
18795;BME280;29610;49.022;12.114;2023-03-22T09:49:49;97430.59;;;17.40;100.00
18795;BME280;29610;49.022;12.114;2023-03-22T09:52:43;97425.25;;;17.47;100.00
18795;BME280;29610;49.022;12.114;2023-03-22T09:55:41;97405.59;;;17.45;100.00
18795;BME280;29610;49.022;12.114;2023-03-22T09:58:41;97407.63;;;17.52;100.00
18795;BME280;29610;49.022;12.114;2023-03-22T10:01:39;97403.94;;;17.70;100.00
18795;BME280;29610;49.022;12.114;2023-03-22T10:04:50;97402.75;;;17.71;100.00
18795;BME280;29610;49.022;12.114;2023-03-22T10:08:13;97399.59;;;18.02;100.00
18795;BME280;29610;49.022;12.114;2023-03-22T10:11:18;97402.50;;;18.16;100.00
18795;BME280;29610;49.022;12.114;2023-03-22T10:14:34;97401.72;;;18.52;100.00
18795;BME280;29610;49.022;12.114;2023-03-22T10:17:28;97402.78;;;18.88;100.00
18795;BME280;29610;49.022;12.114;2023-03-22T10:20:30;97385.53;;;18.94;100.00
18795;BME280;29610;49.022;12.114;2023-03-22T10:23:30;97385.28;;;19.17;100.00
18795;BME280;29610;49.022;12.114;2023-03-22T10:26:26;97386.59;;;19.34;100.00
18795;BME280;29610;49.022;12.114;2023-03-22T10:29:27;97389.75;;;19.36;100.00
18795;BME280;29610;49.022;12.114;2023-03-22T10:32:24;97383.84;;;19.34;100.00
18795;BME280;29610;49.022;12.114;2023-03-22T10:35:16;97383.09;;;19.44;100.00
18795;BME280;29610;49.022;12.114;2023-03-22T10:38:18;97378.81;;;19.53;100.00
18795;BME280;29610;49.022;12.114;2023-03-22T10:41:11;97383.25;;;19.79;100.00
18795;BME280;29610;49.022;12.114;2023-03-22T10:44:04;97382.50;;;19.89;100.00
18795;BME280;29610;49.022;12.114;2023-03-22T10:46:55;97381.38;;;20.11;100.00
18795;BME280;29610;49.022;12.114;2023-03-22T10:49:51;97368.06;;;20.34;100.00
18795;BME280;29610;49.022;12.114;2023-03-22T10:52:49;97364.56;;;20.58;100.00
18795;BME280;29610;49.022;12.114;2023-03-22T10:55:42;97373.22;;;20.88;100.00
18795;BME280;29610;49.022;12.114;2023-03-22T10:58:34;97362.91;;;21.27;96.18
18795;BME280;29610;49.022;12.114;2023-03-22T11:01:33;97364.75;;;21.72;90.34
18795;BME280;29610;49.022;12.114;2023-03-22T11:04:32;97364.28;;;21.92;83.97
18795;BME280;29610;49.022;12.114;2023-03-22T11:07:33;97360.09;;;22.28;86.56
18795;BME280;29610;49.022;12.114;2023-03-22T11:10:26;97354.41;;;21.91;75.81
18795;BME280;29610;49.022;12.114;2023-03-22T11:13:19;97351.88;;;22.17;81.31
18795;BME280;29610;49.022;12.114;2023-03-22T11:16:09;97342.13;;;22.57;76.46
18795;BME280;29610;49.022;12.114;2023-03-22T11:19:01;97336.84;;;22.76;71.60
18795;BME280;29610;49.022;12.114;2023-03-22T11:21:51;97332.41;;;22.82;71.61
18795;BME280;29610;49.022;12.114;2023-03-22T11:29:46;97319.97;;;23.42;65.91
18795;BME280;29610;49.022;12.114;2023-03-22T11:32:38;97311.50;;;23.52;63.31
18795;BME280;29610;49.022;12.114;2023-03-22T11:35:30;97314.59;;;23.24;66.18
18795;BME280;29610;49.022;12.114;2023-03-22T11:38:30;97308.84;;;23.75;63.06
18795;BME280;29610;49.022;12.114;2023-03-22T11:41:27;97304.34;;;23.85;63.88
18795;BME280;29610;49.022;12.114;2023-03-22T11:44:20;97293.75;;;23.76;60.76
18795;BME280;29610;49.022;12.114;2023-03-22T11:47:12;97294.31;;;23.94;59.00
18795;BME280;29610;49.022;12.114;2023-03-22T11:50:06;97311.34;;;23.96;57.74
18795;BME280;29610;49.022;12.114;2023-03-22T11:53:00;97295.63;;;24.39;61.20
18795;BME280;29610;49.022;12.114;2023-03-22T11:55:54;97281.69;;;24.66;56.73
18795;BME280;29610;49.022;12.114;2023-03-22T11:58:55;97274.03;;;24.97;57.27
18795;BME280;29610;49.022;12.114;2023-03-22T12:01:55;97276.63;;;25.27;56.19
18795;BME280;29610;49.022;12.114;2023-03-22T12:04:49;97272.53;;;25.35;53.25
18795;BME280;29610;49.022;12.114;2023-03-22T12:07:40;97271.97;;;25.43;51.85
18795;BME280;29610;49.022;12.114;2023-03-22T12:10:35;97260.50;;;25.18;53.16
18795;BME280;29610;49.022;12.114;2023-03-22T12:13:37;97255.78;;;25.15;51.46
18795;BME280;29610;49.022;12.114;2023-03-22T12:16:42;97258.88;;;25.40;53.86
18795;BME280;29610;49.022;12.114;2023-03-22T12:19:55;97257.00;;;24.48;51.44
18795;BME280;29610;49.022;12.114;2023-03-22T12:22:50;97255.63;;;23.84;52.51
18795;BME280;29610;49.022;12.114;2023-03-22T12:25:45;97245.16;;;23.65;56.15
18795;BME280;29610;49.022;12.114;2023-03-22T12:28:48;97242.00;;;23.93;56.03
18795;BME280;29610;49.022;12.114;2023-03-22T12:31:47;97249.06;;;23.71;55.54
18795;BME280;29610;49.022;12.114;2023-03-22T12:34:45;97235.06;;;23.17;56.21
18795;BME280;29610;49.022;12.114;2023-03-22T12:37:43;97234.06;;;23.65;58.04
18795;BME280;29610;49.022;12.114;2023-03-22T12:40:39;97234.97;;;22.91;54.90
18795;BME280;29610;49.022;12.114;2023-03-22T12:43:45;97227.03;;;24.13;55.64
18795;BME280;29610;49.022;12.114;2023-03-22T12:46:47;97217.13;;;24.82;53.72
18795;BME280;29610;49.022;12.114;2023-03-22T12:49:48;97221.56;;;24.99;53.65
18795;BME280;29610;49.022;12.114;2023-03-22T12:52:44;97211.28;;;25.15;50.97
18795;BME280;29610;49.022;12.114;2023-03-22T12:55:37;97209.47;;;25.48;52.26
18795;BME280;29610;49.022;12.114;2023-03-22T12:58:27;97212.28;;;25.25;51.62
18795;BME280;29610;49.022;12.114;2023-03-22T13:01:26;97211.22;;;25.58;50.74
18795;BME280;29610;49.022;12.114;2023-03-22T13:04:48;97214.47;;;25.37;49.95
18795;BME280;29610;49.022;12.114;2023-03-22T13:07:53;97204.81;;;25.22;50.63
18795;BME280;29610;49.022;12.114;2023-03-22T13:11:02;97206.25;;;24.91;49.82
18795;BME280;29610;49.022;12.114;2023-03-22T13:13:52;97205.03;;;24.92;52.25
18795;BME280;29610;49.022;12.114;2023-03-22T13:16:51;97206.22;;;25.30;52.31
18795;BME280;29610;49.022;12.114;2023-03-22T13:19:51;97204.22;;;25.85;50.57
18795;BME280;29610;49.022;12.114;2023-03-22T13:23:24;97199.38;;;26.22;46.95
18795;BME280;29610;49.022;12.114;2023-03-22T13:26:14;97192.81;;;25.25;46.58
18795;BME280;29610;49.022;12.114;2023-03-22T13:29:14;97184.56;;;25.76;48.55
18795;BME280;29610;49.022;12.114;2023-03-22T13:32:27;97187.00;;;25.39;49.93
18795;BME280;29610;49.022;12.114;2023-03-22T13:35:25;97188.56;;;24.81;49.66
18795;BME280;29610;49.022;12.114;2023-03-22T13:38:21;97184.84;;;24.68;49.70
18795;BME280;29610;49.022;12.114;2023-03-22T13:41:24;97190.91;;;24.83;47.93
18795;BME280;29610;49.022;12.114;2023-03-22T13:44:27;97182.97;;;24.38;49.09
18795;BME280;29610;49.022;12.114;2023-03-22T13:47:33;97185.50;;;24.76;48.99
18795;BME280;29610;49.022;12.114;2023-03-22T13:50:28;97190.69;;;24.27;49.87
18795;BME280;29610;49.022;12.114;2023-03-22T13:53:27;97188.06;;;23.67;51.76
18795;BME280;29610;49.022;12.114;2023-03-22T13:56:33;97178.31;;;23.82;46.53
18795;BME280;29610;49.022;12.114;2023-03-22T13:59:59;97180.50;;;23.41;48.49
18795;BME280;29610;49.022;12.114;2023-03-22T14:04:09;97170.97;;;23.72;47.68
18795;BME280;29610;49.022;12.114;2023-03-22T14:07:07;97156.66;;;24.00;45.93
18795;BME280;29610;49.022;12.114;2023-03-22T14:10:04;97162.78;;;23.62;48.38
18795;BME280;29610;49.022;12.114;2023-03-22T14:13:01;97162.00;;;23.61;47.79
18795;BME280;29610;49.022;12.114;2023-03-22T14:15:55;97163.66;;;23.25;47.58
18795;BME280;29610;49.022;12.114;2023-03-22T14:18:48;97158.66;;;23.17;48.11
18795;BME280;29610;49.022;12.114;2023-03-22T14:21:42;97154.94;;;23.57;50.16
18795;BME280;29610;49.022;12.114;2023-03-22T14:24:37;97147.03;;;23.55;47.86
18795;BME280;29610;49.022;12.114;2023-03-22T14:27:27;97148.75;;;23.72;47.54
18795;BME280;29610;49.022;12.114;2023-03-22T14:30:26;97154.59;;;23.78;50.73
18795;BME280;29610;49.022;12.114;2023-03-22T14:33:19;97148.59;;;23.83;49.39
18795;BME280;29610;49.022;12.114;2023-03-22T14:36:12;97145.84;;;23.79;49.79
18795;BME280;29610;49.022;12.114;2023-03-22T14:39:09;97144.41;;;23.45;47.67
18795;BME280;29610;49.022;12.114;2023-03-22T14:42:01;97140.44;;;23.15;43.06
18795;BME280;29610;49.022;12.114;2023-03-22T14:44:54;97158.25;;;22.84;48.11
18795;BME280;29610;49.022;12.114;2023-03-22T14:47:45;97145.13;;;22.88;49.25
18795;BME280;29610;49.022;12.114;2023-03-22T14:50:33;97150.72;;;22.51;49.73
18795;BME280;29610;49.022;12.114;2023-03-22T14:53:29;97152.03;;;22.77;47.48
18795;BME280;29610;49.022;12.114;2023-03-22T14:56:22;97150.41;;;22.02;44.83
18795;BME280;29610;49.022;12.114;2023-03-22T14:59:19;97145.25;;;21.45;46.84
18795;BME280;29610;49.022;12.114;2023-03-22T15:02:25;97143.03;;;21.26;47.95
18795;BME280;29610;49.022;12.114;2023-03-22T15:05:21;97137.44;;;21.33;47.57
18795;BME280;29610;49.022;12.114;2023-03-22T15:08:23;97139.56;;;21.05;49.54
18795;BME280;29610;49.022;12.114;2023-03-22T15:11:13;97134.25;;;21.38;50.05
18795;BME280;29610;49.022;12.114;2023-03-22T15:14:03;97132.25;;;21.46;50.97
18795;BME280;29610;49.022;12.114;2023-03-22T15:16:51;97132.66;;;21.44;49.30
18795;BME280;29610;49.022;12.114;2023-03-22T15:19:47;97127.34;;;22.12;49.74
18795;BME280;29610;49.022;12.114;2023-03-22T15:22:37;97126.41;;;22.29;48.94
18795;BME280;29610;49.022;12.114;2023-03-22T15:25:30;97122.28;;;22.44;48.27
18795;BME280;29610;49.022;12.114;2023-03-22T15:28:21;97117.31;;;22.69;49.67
18795;BME280;29610;49.022;12.114;2023-03-22T15:31:21;97102.94;;;22.77;48.91
18795;BME280;29610;49.022;12.114;2023-03-22T15:34:17;97109.91;;;22.59;49.82
18795;BME280;29610;49.022;12.114;2023-03-22T15:37:14;97107.44;;;22.64;48.97
18795;BME280;29610;49.022;12.114;2023-03-22T15:40:36;97102.91;;;22.44;50.70
18795;BME280;29610;49.022;12.114;2023-03-22T15:43:32;97105.81;;;22.33;50.21
18795;BME280;29610;49.022;12.114;2023-03-22T15:46:21;97105.91;;;21.82;51.12
18795;BME280;29610;49.022;12.114;2023-03-22T15:49:19;97106.91;;;21.51;51.91
18795;BME280;29610;49.022;12.114;2023-03-22T15:52:18;97109.47;;;21.24;54.48